Thunder radar more information blitzortung!


Radar de pluja more information rain snow radar


Visita la nostra xarxa de llocs de meteo:

Template documentation
and downloads

And another site



No particular awareness of the weather is required.    There are no Weather-warnings

Pagina Historial Weather Underground text

Diari Resum Agost 10, 2017 Unitats:  Mètric    Imperial   Tant
« Previous Dia
SegĂźent Dia »
Diari Setmana Mensual Anual Personalitzada
  Maxima: Minima: Media:
Temperatura: 29.1 °C 13.9 °C 22.4 °C
Punt de rosada: 14.3 °C 6.2 °C 10.4 °C
Humitat: 88 % 27 % 49 %
Wind Speed: 24.1 km/h 0.0 km/h 6.7 km/h
RĂ fegues de vent: 24.1 km/h - -
Vent:- - SSW
Pression baro: 1020.9 hPa 1015.8 hPa -
Precipitacions: 0.0 mm    
Historical Graphs
 
 
Dades de taula per Agost 10, 2017
Temps Temperatura Punt de rosada Pression baro Vent Wind Speed RĂ fegues de vent Humitat Rainfall Rate (Hourly)
00:00 14.9 °C 12.2 °C 1017.8 hPa WSW 1.6 km/h 3.2 km/h 84 % 0.0 mm
00:01 16.3 °C 14.3 °C 1017.8 hPa NE 1.9 km/h   88 % 7.1 mm
00:06 16.3 °C 14.1 °C 1017.8 hPa SW 3.7 km/h 3.7 km/h 87 % 7.1 mm
00:10 14.7 °C 12.0 °C 1017.8 hPa SW 1.6 km/h 4.8 km/h 84 % 0.0 mm
00:20 14.5 °C 11.8 °C 1018.8 hPa WSW 1.6 km/h 4.8 km/h 84 % 0.0 mm
00:30 14.4 °C 11.6 °C 1018.8 hPa WSW 3.2 km/h 4.8 km/h 83 % 0.0 mm
00:40 14.3 °C 11.4 °C 1017.8 hPa WSW 1.6 km/h 4.8 km/h 83 % 0.0 mm
00:50 14.2 °C 11.0 °C 1017.8 hPa WSW 3.2 km/h 6.4 km/h 81 % 0.0 mm
01:00 14.3 °C 10.9 °C 1017.8 hPa WSW 4.8 km/h 6.4 km/h 80 % 0.0 mm
01:10 14.4 °C 10.8 °C 1016.8 hPa WSW 4.8 km/h 6.4 km/h 79 % 0.0 mm
01:20 14.4 °C 10.6 °C 1017.8 hPa WSW 3.2 km/h 4.8 km/h 78 % 0.0 mm
01:30 14.3 °C 10.5 °C 1017.8 hPa West 1.6 km/h 3.2 km/h 78 % 0.0 mm
01:40 14.3 °C 10.3 °C 1017.8 hPa West 3.2 km/h 6.4 km/h 77 % 0.0 mm
01:50 14.2 °C 10.2 °C 1017.8 hPa West 3.2 km/h 3.2 km/h 77 % 0.0 mm
02:00 14.1 °C 9.9 °C 1017.8 hPa WNW 1.6 km/h 3.2 km/h 76 % 0.0 mm
02:10 14.0 °C 9.8 °C 1016.8 hPa WNW 3.2 km/h 4.8 km/h 76 % 0.0 mm
02:20 14.0 °C 9.8 °C 1017.8 hPa West 1.6 km/h 6.4 km/h 76 % 0.0 mm
02:30 14.0 °C 9.8 °C 1017.8 hPa WSW 3.2 km/h 4.8 km/h 76 % 0.0 mm
02:40 13.9 °C 9.7 °C 1017.8 hPa WSW 3.2 km/h 8.0 km/h 76 % 0.0 mm
02:50 13.9 °C 9.6 °C 1017.8 hPa West 1.6 km/h 4.8 km/h 75 % 0.0 mm
03:00 13.9 °C 9.6 °C 1017.8 hPa West 3.2 km/h 4.8 km/h 75 % 0.0 mm
03:10 13.9 °C 9.7 °C 1018.8 hPa Calm   4.8 km/h 76 % 0.0 mm
03:20 14.2 °C 10.0 °C 1018.8 hPa West 3.2 km/h 4.8 km/h 76 % 0.0 mm
03:30 14.3 °C 10.1 °C 1018.8 hPa Calm   4.8 km/h 76 % 0.0 mm
03:40 14.4 °C 10.4 °C 1019.9 hPa SW 1.6 km/h 3.2 km/h 77 % 0.0 mm
03:50 14.4 °C 10.4 °C 1019.9 hPa SW 1.6 km/h 4.8 km/h 77 % 0.0 mm
04:00 14.6 °C 10.4 °C 1019.9 hPa WSW 3.2 km/h 4.8 km/h 76 % 0.0 mm
04:10 14.7 °C 10.5 °C 1019.9 hPa WSW 1.6 km/h 3.2 km/h 76 % 0.0 mm
04:20 15.0 °C 10.8 °C 1020.9 hPa West 1.6 km/h 3.2 km/h 76 % 0.0 mm
04:30 15.3 °C 11.1 °C 1020.9 hPa NW 1.6 km/h 4.8 km/h 76 % 0.0 mm
04:40 16.4 °C 11.9 °C 1019.9 hPa North 1.6 km/h 4.8 km/h 75 % 0.0 mm
04:50 16.8 °C 12.1 °C 1019.9 hPa NNE 1.6 km/h 4.8 km/h 74 % 0.0 mm
05:00 17.3 °C 12.4 °C 1019.9 hPa ENE 1.6 km/h 6.4 km/h 73 % 0.0 mm
05:10 17.3 °C 12.0 °C 1019.9 hPa SSW 3.2 km/h 9.7 km/h 71 % 0.0 mm
10:14 18.0 °C 12.4 °C 1019.9 hPa SW 5.6 km/h 5.6 km/h 70 % 0.0 mm
10:15 18.0 °C 12.4 °C 1019.9 hPa WSW 5.6 km/h 5.6 km/h 70 % 0.0 mm
10:20 18.6 °C 12.8 °C 1019.9 hPa East 3.9 km/h 3.9 km/h 69 % 0.0 mm
10:25 18.4 °C 12.4 °C 1019.9 hPa ENE 7.4 km/h 7.4 km/h 68 % 0.0 mm
10:30 18.5 °C 12.7 °C 1019.9 hPa NNW 3.7 km/h 3.7 km/h 69 % 0.0 mm
10:35 18.6 °C 12.6 °C 1019.9 hPa NW 3.7 km/h 3.7 km/h 68 % 0.0 mm
10:40 18.5 °C 12.0 °C 1019.9 hPa NNE 5.6 km/h 5.6 km/h 66 % 0.0 mm
10:45 18.7 °C 12.4 °C 1019.9 hPa North 7.4 km/h 7.4 km/h 67 % 0.0 mm
10:50 19.2 °C 12.7 °C 1019.9 hPa ENE 5.6 km/h 5.6 km/h 66 % 0.0 mm
10:55 19.2 °C 12.4 °C 1019.9 hPa NNW 5.6 km/h 5.6 km/h 65 % 0.0 mm
11:00 19.2 °C 12.7 °C 1019.9 hPa SW 8.7 km/h 8.7 km/h 66 % 0.0 mm
11:05 19.3 °C 12.6 °C 1019.9 hPa SSW 1.9 km/h   65 % 0.0 mm
11:10 19.7 °C 12.7 °C 1019.9 hPa NE 3.9 km/h 3.9 km/h 64 % 0.0 mm
11:15 19.8 °C 12.6 °C 1019.9 hPa ESE 3.7 km/h 3.7 km/h 63 % 0.0 mm
11:20 20.6 °C 13.3 °C 1019.9 hPa NE 5.6 km/h 5.6 km/h 63 % 0.0 mm
11:25 20.6 °C 13.1 °C 1019.9 hPa ESE 3.7 km/h 3.7 km/h 62 % 0.0 mm
11:30 21.4 °C 13.3 °C 1019.9 hPa ESE 3.7 km/h 3.7 km/h 60 % 0.0 mm
11:35 21.2 °C 13.1 °C 1019.9 hPa West 5.6 km/h 5.6 km/h 60 % 0.0 mm
11:40 21.2 °C 13.1 °C 1019.9 hPa SW 5.6 km/h 5.6 km/h 60 % 0.0 mm
11:45 21.7 °C 13.6 °C 1018.8 hPa WSW 5.6 km/h 5.6 km/h 60 % 0.0 mm
11:50 21.8 °C 13.4 °C 1018.8 hPa NE 5.6 km/h 5.6 km/h 59 % 0.0 mm
11:55 21.7 °C 13.1 °C 1018.8 hPa NW 5.6 km/h 5.6 km/h 58 % 0.0 mm
12:00 21.5 °C 12.9 °C 1018.8 hPa ENE 7.4 km/h 7.4 km/h 58 % 0.0 mm
12:05 21.3 °C 12.4 °C 1018.8 hPa WNW 11.1 km/h 11.1 km/h 57 % 0.0 mm
12:10 21.5 °C 12.6 °C 1018.8 hPa NNE 10.0 km/h 10.0 km/h 57 % 0.0 mm
12:15 21.3 °C 11.9 °C 1018.8 hPa North 6.4 km/h 6.4 km/h 55 % 0.0 mm
12:20 22.0 °C 12.6 °C 1018.8 hPa SW 3.7 km/h 3.7 km/h 55 % 0.0 mm
12:25 22.4 °C 12.9 °C 1018.8 hPa East 2.3 km/h 2.3 km/h 55 % 0.0 mm
12:30 22.7 °C 12.9 °C 1018.8 hPa ENE 7.4 km/h 7.4 km/h 54 % 0.0 mm
12:35 22.9 °C 13.1 °C 1018.8 hPa East 3.9 km/h 3.9 km/h 54 % 0.0 mm
12:40 23.2 °C 13.1 °C 1018.8 hPa NW 6.1 km/h 6.1 km/h 53 % 0.0 mm
12:45 23.2 °C 13.1 °C 1018.8 hPa SSW 3.7 km/h 3.9 km/h 53 % 0.0 mm
12:50 23.7 °C 13.3 °C 1018.8 hPa SSW 7.6 km/h 7.6 km/h 52 % 0.0 mm
12:55 23.7 °C 12.7 °C 1018.8 hPa West 9.3 km/h 9.3 km/h 50 % 0.0 mm
13:00 23.8 °C 12.4 °C 1018.8 hPa West 3.7 km/h 4.7 km/h 49 % 0.0 mm
13:05 24.4 °C 13.0 °C 1018.8 hPa SW 10.0 km/h 10.0 km/h 49 % 0.0 mm
13:10 24.3 °C 12.6 °C 1018.8 hPa SW 9.3 km/h 9.3 km/h 48 % 0.0 mm
13:15 24.8 °C 13.1 °C 1018.8 hPa SW 9.0 km/h 9.0 km/h 48 % 0.0 mm
13:20 25.0 °C 12.9 °C 1018.8 hPa West 5.6 km/h 5.6 km/h 47 % 0.0 mm
13:25 25.0 °C 12.2 °C 1018.8 hPa WSW 5.6 km/h 5.6 km/h 45 % 0.0 mm
13:30 25.2 °C 12.4 °C 1018.8 hPa WNW 14.8 km/h 14.8 km/h 45 % 0.0 mm
13:35 25.6 °C 12.8 °C 1018.8 hPa West 7.4 km/h 7.4 km/h 45 % 0.0 mm
13:40 25.5 °C 12.3 °C 1018.8 hPa SW 13.0 km/h 13.0 km/h 44 % 0.0 mm
13:45 25.9 °C 12.3 °C 1017.8 hPa West 9.3 km/h 9.3 km/h 43 % 0.0 mm
13:50 25.5 °C 11.3 °C 1017.8 hPa WSW 11.1 km/h 11.1 km/h 41 % 0.0 mm
13:55 25.6 °C 11.4 °C 1017.8 hPa SSW 9.3 km/h 9.3 km/h 41 % 0.0 mm
14:00 25.9 °C 11.3 °C 1017.8 hPa South 9.3 km/h 9.3 km/h 40 % 0.0 mm
14:05 25.8 °C 10.8 °C 1017.8 hPa SE 9.3 km/h 9.3 km/h 39 % 0.0 mm
14:10 25.7 °C 10.3 °C 1017.8 hPa West 13.0 km/h 13.0 km/h 38 % 0.0 mm
14:15 25.8 °C 10.0 °C 1017.8 hPa SSW 9.3 km/h 9.3 km/h 37 % 0.0 mm
14:20 26.0 °C 9.8 °C 1017.8 hPa SSW 14.8 km/h 14.8 km/h 36 % 0.0 mm
14:25 26.3 °C 10.4 °C 1017.8 hPa WSW 7.9 km/h 7.9 km/h 37 % 0.0 mm
14:30 26.2 °C 9.5 °C 1017.8 hPa WSW 9.3 km/h 9.3 km/h 35 % 0.0 mm
14:35 26.4 °C 9.7 °C 1017.8 hPa WSW 9.3 km/h 9.3 km/h 35 % 0.0 mm
14:40 25.9 °C 8.4 °C 1017.8 hPa SW 16.7 km/h 16.7 km/h 33 % 0.0 mm
14:45 26.3 °C 9.2 °C 1017.8 hPa SW 7.4 km/h 7.4 km/h 34 % 0.0 mm
14:50 26.4 °C 8.8 °C 1017.8 hPa SW 5.6 km/h 5.6 km/h 33 % 0.0 mm
14:55 26.4 °C 8.8 °C 1017.8 hPa NNW 11.1 km/h 11.1 km/h 33 % 0.0 mm
15:00 26.7 °C 9.6 °C 1017.8 hPa West 11.1 km/h 11.1 km/h 34 % 0.0 mm
15:05 27.0 °C 9.3 °C 1017.8 hPa NNW 7.4 km/h 7.4 km/h 33 % 0.0 mm
15:10 26.7 °C 9.1 °C 1017.8 hPa SW 5.6 km/h 5.6 km/h 33 % 0.0 mm
15:15 26.4 °C 9.3 °C 1017.8 hPa WSW 11.1 km/h 11.1 km/h 34 % 0.0 mm
15:20 27.0 °C 9.3 °C 1017.8 hPa SSW 9.7 km/h 9.7 km/h 33 % 0.0 mm
15:25 27.1 °C 9.0 °C 1017.8 hPa NNW 5.6 km/h 5.6 km/h 32 % 0.0 mm
15:30 27.2 °C 9.1 °C 1017.8 hPa SE 5.0 km/h 5.0 km/h 32 % 0.0 mm
15:35 27.6 °C 9.9 °C 1017.8 hPa West 7.4 km/h 7.4 km/h 33 % 0.0 mm
15:40 27.7 °C 9.5 °C 1017.8 hPa SW 9.3 km/h 9.3 km/h 32 % 0.0 mm
15:45 27.3 °C 9.2 °C 1016.8 hPa WSW 7.4 km/h 7.4 km/h 32 % 0.0 mm
15:50 27.7 °C 9.5 °C 1016.8 hPa ENE 3.7 km/h 4.2 km/h 32 % 0.0 mm
15:55 27.7 °C 9.5 °C 1016.8 hPa SSW 11.9 km/h 11.9 km/h 32 % 0.0 mm
16:00 28.1 °C 8.9 °C 1017.8 hPa SW 11.1 km/h 11.1 km/h 30 % 0.0 mm
16:05 27.9 °C 8.7 °C 1017.8 hPa SW 7.4 km/h 7.4 km/h 30 % 0.0 mm
16:10 28.0 °C 8.8 °C 1017.8 hPa SW 9.3 km/h 9.3 km/h 30 % 0.0 mm
16:15 28.2 °C 9.0 °C 1017.8 hPa SW 9.3 km/h 9.3 km/h 30 % 0.0 mm
16:20 28.5 °C 8.7 °C 1017.8 hPa South 9.3 km/h 9.3 km/h 29 % 0.0 mm
16:23 28.5 °C 9.2 °C 1017.8 hPa SW 11.1 km/h 11.1 km/h 30 % 0.0 mm
16:27 28.2 °C 8.5 °C 1017.8 hPa NE 7.4 km/h 7.4 km/h 29 % 0.0 mm
16:33 27.7 °C 8.1 °C 1017.8 hPa SW 7.4 km/h 7.4 km/h 29 % 0.0 mm
16:38 28.2 °C 8.5 °C 1017.8 hPa West 7.4 km/h 7.4 km/h 29 % 0.0 mm
16:43 28.4 °C 8.7 °C 1017.8 hPa SW 6.4 km/h 6.4 km/h 29 % 0.0 mm
16:47 28.3 °C 8.1 °C 1016.8 hPa WSW 9.3 km/h 9.3 km/h 28 % 0.0 mm
16:52 28.7 °C 8.9 °C 1016.8 hPa West 7.4 km/h 7.4 km/h 29 % 0.0 mm
16:57 28.7 °C 8.9 °C 1016.8 hPa SW 5.6 km/h 5.6 km/h 29 % 0.0 mm
17:02 28.7 °C 8.4 °C 1016.8 hPa West 7.4 km/h 7.4 km/h 28 % 0.0 mm
17:08 28.8 °C 8.4 °C 1016.8 hPa WNW 7.4 km/h 7.4 km/h 28 % 0.0 mm
17:13 28.7 °C 8.4 °C 1016.8 hPa WSW 7.4 km/h 7.4 km/h 28 % 0.0 mm
17:18 28.5 °C 8.2 °C 1016.8 hPa SW 5.6 km/h 6.1 km/h 28 % 0.0 mm
17:22 28.5 °C 8.2 °C 1016.8 hPa West 13.0 km/h 13.0 km/h 28 % 0.0 mm
17:27 28.7 °C 8.4 °C 1016.8 hPa SW 5.6 km/h 5.6 km/h 28 % 0.0 mm
17:32 29.1 °C 8.2 °C 1015.8 hPa WSW 11.1 km/h 11.1 km/h 27 % 0.0 mm
17:38 28.8 °C 7.9 °C 1015.8 hPa West 9.3 km/h 9.3 km/h 27 % 0.0 mm
17:43 28.9 °C 8.6 °C 1015.8 hPa SW 10.0 km/h 10.0 km/h 28 % 0.0 mm
17:48 28.5 °C 7.7 °C 1015.8 hPa SSW 11.1 km/h 11.1 km/h 27 % 0.0 mm
17:53 28.6 °C 7.8 °C 1015.8 hPa South 9.3 km/h 9.3 km/h 27 % 0.0 mm
17:58 27.9 °C 7.7 °C 1015.8 hPa WSW 22.2 km/h 22.2 km/h 28 % 0.0 mm
18:03 27.8 °C 8.6 °C 1015.8 hPa SSW 7.4 km/h 7.4 km/h 30 % 0.0 mm
18:08 27.8 °C 8.6 °C 1015.8 hPa SSW 14.8 km/h 14.8 km/h 30 % 0.0 mm
18:13 27.3 °C 8.7 °C 1015.8 hPa SW 13.0 km/h 13.0 km/h 31 % 0.0 mm
18:18 26.6 °C 8.1 °C 1015.8 hPa SW 24.1 km/h 24.1 km/h 31 % 0.0 mm
18:23 26.4 °C 8.4 °C 1015.8 hPa SW 18.3 km/h 18.3 km/h 32 % 0.0 mm
18:28 26.1 °C 8.1 °C 1015.8 hPa South 16.7 km/h 16.7 km/h 32 % 0.0 mm
18:33 26.0 °C 8.5 °C 1015.8 hPa SSW 14.8 km/h 14.8 km/h 33 % 0.0 mm
18:38 26.0 °C 8.9 °C 1015.8 hPa SW 16.7 km/h 16.7 km/h 34 % 0.0 mm
18:43 25.9 °C 8.8 °C 1015.8 hPa SSW 14.8 km/h 14.8 km/h 34 % 0.0 mm
18:48 25.7 °C 8.7 °C 1015.8 hPa WSW 14.8 km/h 14.8 km/h 34 % 0.0 mm
18:53 25.7 °C 9.1 °C 1015.8 hPa SW 14.8 km/h 14.8 km/h 35 % 0.0 mm
18:58 25.3 °C 8.7 °C 1015.8 hPa SW 13.0 km/h 13.0 km/h 35 % 0.0 mm
19:03 25.5 °C 9.3 °C 1015.8 hPa SW 9.3 km/h 9.3 km/h 36 % 0.0 mm
19:08 25.3 °C 9.2 °C 1015.8 hPa SW 16.7 km/h 16.7 km/h 36 % 0.0 mm
19:13 25.2 °C 9.1 °C 1015.8 hPa SW 20.4 km/h 20.4 km/h 36 % 0.0 mm
19:18 25.2 °C 9.1 °C 1015.8 hPa SSW 14.8 km/h 14.8 km/h 36 % 0.0 mm
19:23 25.1 °C 9.0 °C 1015.8 hPa South 14.8 km/h 14.8 km/h 36 % 0.0 mm
19:28 25.1 °C 9.0 °C 1015.8 hPa SW 15.6 km/h 15.6 km/h 36 % 0.0 mm
19:38 24.9 °C 9.6 °C 1015.8 hPa SW 14.8 km/h 14.8 km/h 38 % 0.0 mm
19:43 24.7 °C 9.4 °C 1015.8 hPa WSW 14.8 km/h 14.8 km/h 38 % 0.0 mm
19:48 24.6 °C 9.3 °C 1015.8 hPa West 19.8 km/h 19.8 km/h 38 % 0.0 mm
19:53 24.5 °C 9.2 °C 1015.8 hPa West 9.5 km/h 9.5 km/h 38 % 0.0 mm
19:58 24.5 °C 9.6 °C 1015.8 hPa SSW 9.3 km/h 9.3 km/h 39 % 0.0 mm
20:03 24.4 °C 9.6 °C 1015.8 hPa WSW 9.3 km/h 9.3 km/h 39 % 0.0 mm
20:08 24.3 °C 9.8 °C 1015.8 hPa WSW 13.7 km/h 13.7 km/h 40 % 0.0 mm
20:13 24.2 °C 9.7 °C 1015.8 hPa SW 7.4 km/h 7.4 km/h 40 % 0.0 mm
20:18 24.0 °C 9.9 °C 1015.8 hPa SW 9.3 km/h 9.3 km/h 41 % 0.0 mm
20:23 24.0 °C 9.9 °C 1015.8 hPa SW 9.0 km/h 9.0 km/h 41 % 0.0 mm
20:28 23.9 °C 10.2 °C 1015.8 hPa SSW 5.6 km/h 5.6 km/h 42 % 0.0 mm
20:33 23.7 °C 10.0 °C 1016.8 hPa SW 7.4 km/h 7.4 km/h 42 % 0.0 mm
20:38 23.6 °C 10.3 °C 1016.8 hPa SW 5.6 km/h 5.8 km/h 43 % 0.0 mm
20:40 19.7 °C 8.4 °C 1018.8 hPa WSW 4.8 km/h 4.8 km/h 48 % 0.0 mm
20:43 23.6 °C 10.3 °C 1016.8 hPa WSW 9.3 km/h 9.3 km/h 43 % 0.0 mm
20:48 23.4 °C 10.4 °C 1016.8 hPa SW 7.4 km/h 7.4 km/h 44 % 0.0 mm
20:50 19.5 °C 8.2 °C 1018.8 hPa WSW 3.2 km/h 8.0 km/h 48 % 0.0 mm
20:53 23.3 °C 10.3 °C 1016.8 hPa WNW 5.6 km/h 5.6 km/h 44 % 0.0 mm
20:54 23.3 °C 10.3 °C 1016.8 hPa WSW 3.7 km/h 3.7 km/h 44 % 0.0 mm
20:59 23.2 °C 10.6 °C 1016.8 hPa WSW 3.7 km/h 3.9 km/h 45 % 0.0 mm
21:00 19.3 °C 7.7 °C 1018.8 hPa West 1.6 km/h 4.8 km/h 47 % 0.0 mm
21:04 23.1 °C 10.5 °C 1017.8 hPa West 3.7 km/h 3.7 km/h 45 % 0.0 mm
21:09 23.0 °C 10.8 °C 1017.8 hPa West 2.6 km/h 2.6 km/h 46 % 0.0 mm
21:10 19.1 °C 7.5 °C 1018.8 hPa West 4.8 km/h 4.8 km/h 47 % 0.0 mm
21:14 22.9 °C 11.0 °C 1017.8 hPa West 1.9 km/h   47 % 0.0 mm
21:19 22.8 °C 10.9 °C 1016.8 hPa NNE 3.7 km/h 3.7 km/h 47 % 0.0 mm
21:20 18.9 °C 7.7 °C 1018.8 hPa WSW 3.2 km/h 4.8 km/h 48 % 0.0 mm
21:24 22.6 °C 10.7 °C 1016.8 hPa NNE 1.9 km/h 1.9 km/h 47 % 0.0 mm
21:29 22.6 °C 10.7 °C 1017.8 hPa NNE 2.6 km/h 2.6 km/h 47 % 0.0 mm
21:30 18.6 °C 7.4 °C 1018.8 hPa West 1.6 km/h 6.4 km/h 48 % 0.0 mm
21:34 22.5 °C 10.6 °C 1017.8 hPa NNE 5.6 km/h 5.6 km/h 47 % 0.0 mm
21:39 22.4 °C 10.8 °C 1017.8 hPa NNE 5.6 km/h 5.6 km/h 48 % 0.0 mm
21:40 18.5 °C 7.3 °C 1018.8 hPa West 3.2 km/h 4.8 km/h 48 % 0.0 mm
21:44 22.4 °C 10.8 °C 1017.8 hPa East 3.7 km/h 3.7 km/h 48 % 0.0 mm
21:49 22.5 °C 10.9 °C 1017.8 hPa WNW 3.7 km/h 3.7 km/h 48 % 0.0 mm
21:50 18.4 °C 7.2 °C 1018.8 hPa West 3.2 km/h 8.0 km/h 48 % 0.0 mm
21:54 22.4 °C 10.8 °C 1017.8 hPa ENE 1.9 km/h   48 % 0.0 mm
21:59 22.3 °C 10.8 °C 1017.8 hPa NNE 3.7 km/h 3.7 km/h 48 % 0.0 mm
22:00 18.2 °C 7.0 °C 1018.8 hPa West 3.2 km/h 4.8 km/h 48 % 0.0 mm
22:04 22.2 °C 10.7 °C 1017.8 hPa West 1.9 km/h   48 % 0.0 mm
22:09 22.2 °C 11.0 °C 1017.8 hPa ESE 5.6 km/h 5.6 km/h 49 % 0.0 mm
22:10 18.0 °C 6.8 °C 1018.8 hPa WSW 1.6 km/h 4.8 km/h 48 % 0.0 mm
22:14 22.3 °C 10.8 °C 1017.8 hPa Calm     48 % 0.0 mm
22:19 22.2 °C 11.0 °C 1017.8 hPa NNE 7.9 km/h 7.9 km/h 49 % 0.0 mm
22:20 17.8 °C 6.6 °C 1018.8 hPa West 1.6 km/h 3.2 km/h 48 % 0.0 mm
22:24 22.2 °C 11.0 °C 1017.8 hPa NE 3.9 km/h 3.9 km/h 49 % 0.0 mm
22:29 22.1 °C 10.9 °C 1017.8 hPa WSW 3.9 km/h 4.2 km/h 49 % 0.0 mm
22:30 17.4 °C 6.6 °C 1018.8 hPa West 1.6 km/h 3.2 km/h 49 % 0.0 mm
22:34 22.0 °C 11.1 °C 1017.8 hPa ENE 6.4 km/h 6.4 km/h 50 % 0.0 mm
22:39 22.0 °C 10.8 °C 1017.8 hPa ENE 3.9 km/h 3.9 km/h 49 % 0.0 mm
22:40 17.0 °C 6.2 °C 1018.8 hPa Calm   3.2 km/h 49 % 0.0 mm
22:44 22.1 °C 11.2 °C 1018.8 hPa ESE 4.7 km/h 4.7 km/h 50 % 0.0 mm
22:50 22.1 °C 11.2 °C 1018.8 hPa NW 5.6 km/h 5.6 km/h 50 % 0.0 mm
22:55 22.1 °C 11.2 °C 1018.8 hPa NE 9.3 km/h 9.3 km/h 50 % 0.0 mm
23:00 22.1 °C 10.9 °C 1018.8 hPa SE 5.0 km/h 5.0 km/h 49 % 0.0 mm
23:05 22.1 °C 11.2 °C 1018.8 hPa ENE 3.7 km/h 3.7 km/h 50 % 0.0 mm
23:10 22.0 °C 11.1 °C 1018.8 hPa ENE 3.2 km/h 3.2 km/h 50 % 0.0 mm
23:15 21.9 °C 11.3 °C 1018.8 hPa NE 3.7 km/h 3.7 km/h 51 % 0.0 mm
23:20 21.8 °C 11.2 °C 1018.8 hPa ESE 2.6 km/h 2.6 km/h 51 % 0.0 mm
23:25 21.7 °C 11.4 °C 1018.8 hPa ENE 5.6 km/h 5.6 km/h 52 % 0.0 mm
23:30 21.6 °C 11.3 °C 1018.8 hPa NE 3.7 km/h 3.7 km/h 52 % 0.0 mm
23:35 21.6 °C 11.3 °C 1018.8 hPa NNE 3.7 km/h 3.7 km/h 52 % 0.0 mm
23:40 21.5 °C 11.5 °C 1018.8 hPa Calm     53 % 0.0 mm
23:45 21.5 °C 11.5 °C 1018.8 hPa NW 2.6 km/h 2.6 km/h 53 % 0.0 mm
23:50 21.5 °C 11.5 °C 1018.8 hPa North 3.9 km/h 3.9 km/h 53 % 0.0 mm
23:55 21.4 °C 10.8 °C 1018.8 hPa ENE 1.9 km/h   51 % 0.0 mm
Meteo Sesrovires
Elogis d' Weather Underground - 3.5 mb

Guio original per  Jim McMurry - jmcmurry@mwt.net Adaptat per a la plantilla per  Wim van der Kuil - Leuven-Template.eu

Trobareu la nostra informacio del temps tambe a:

Weather Underground

AWEKAS